Thakot Weather



Thakot's Current Weather

Temprature 26.47o clear sky

clear sky

Rain: 0 %

Min Temprature26.47o
Max Temprature26.47o
Humidity61
Wind Speed0.99 m/h
Sun Rise05:58:51
Sun Set18:00:36
Current Time: 26-Sep-2022 08:58:19
Lat/Lon: 34.7864, 72.9286




Thakot's Geo Location



Thakot's Weather Forecast

Time Overall Temp Min Temp Max Temp Humidity Wind Speed Rain
26-Sep-2022 (Mon)
11:00:00 clear sky 26.260 26.260 28.960 60 2.26 m/h 0 %
14:00:00 light rain 28.420 28.420 30.180 55 2.38 m/h 15 %
17:00:00 clear sky 28.410 28.410 28.410 66 1.62 m/h 0 %
20:00:00 clear sky 23.410 23.410 23.410 81 1.2 m/h 0 %
23:00:00 clear sky 22.640 22.640 22.640 77 1.49 m/h 0 %
27-Sep-2022 (Tue)
02:00:00 clear sky 22.170 22.170 22.170 74 1.49 m/h 0 %
05:00:00 clear sky 21.660 21.660 21.660 72 1.39 m/h 0 %
08:00:00 clear sky 25.540 25.540 25.540 64 0.25 m/h 0 %
11:00:00 clear sky 29.420 29.420 29.420 60 2.33 m/h 0 %
14:00:00 light rain 30.650 30.650 30.650 56 2.83 m/h 26 %
17:00:00 light rain 28.010 28.010 28.010 69 1.89 m/h 22 %
20:00:00 light rain 24.730 24.730 24.730 79 0.89 m/h 14 %
23:00:00 light rain 23.090 23.090 23.090 83 1.34 m/h 15 %
28-Sep-2022 (Wed)
02:00:00 clear sky 22.120 22.120 22.120 81 1.6 m/h 0 %
05:00:00 clear sky 21.670 21.670 21.670 78 1.63 m/h 0 %
08:00:00 clear sky 25.550 25.550 25.550 68 0.09 m/h 0 %
11:00:00 light rain 29.310 29.310 29.310 55 2.5 m/h 20 %
14:00:00 light rain 30.420 30.420 30.420 49 2.84 m/h 43 %
17:00:00 light rain 27.690 27.690 27.690 64 1.91 m/h 42 %
20:00:00 light rain 22.320 22.320 22.320 81 1.71 m/h 219 %
23:00:00 light rain 22.670 22.670 22.670 75 1.46 m/h 52 %
29-Sep-2022 (Thu)
02:00:00 scattered clouds 21.120 21.120 21.120 72 2.24 m/h 0 %
05:00:00 scattered clouds 20.340 20.340 20.340 67 2.38 m/h 0 %
08:00:00 clear sky 25.160 25.160 25.160 54 0.67 m/h 0 %
11:00:00 clear sky 29.550 29.550 29.550 46 1.96 m/h 0 %
14:00:00 clear sky 30.710 30.710 30.710 45 2.56 m/h 0 %
17:00:00 light rain 28.480 28.480 28.480 61 1.65 m/h 22 %
20:00:00 light rain 23.050 23.050 23.050 73 1.74 m/h 21 %
23:00:00 light rain 22.180 22.180 22.180 74 2.03 m/h 19 %
30-Sep-2022 (Fri)
02:00:00 clear sky 21.530 21.530 21.530 71 2.14 m/h 0 %
05:00:00 clear sky 20.990 20.990 20.990 65 2.17 m/h 0 %
08:00:00 clear sky 25.540 25.540 25.540 55 0.45 m/h 0 %
11:00:00 clear sky 29.810 29.810 29.810 46 2.04 m/h 0 %
14:00:00 clear sky 30.930 30.930 30.930 45 2.48 m/h 0 %
17:00:00 light rain 28.390 28.390 28.390 60 1.48 m/h 16 %
20:00:00 scattered clouds 24.040 24.040 24.040 70 1.23 m/h 0 %
23:00:00 few clouds 22.810 22.810 22.810 71 1.99 m/h 0 %
01-Oct-2022 (Sat)
02:00:00 clear sky 22.160 22.160 22.160 73 2.18 m/h 0 %
05:00:00 clear sky 22.210 22.210 22.210 68 2.17 m/h 0 %
08:00:00 scattered clouds 24.810 24.810 24.810 61 0.81 m/h 0 %

Famous Cities (61)